sensor_id;sensor_type;location;lat;lon;timestamp;P1;durP1;ratioP1;P2;durP2;ratioP2
72493;SDS011;60520;49.182;-0.348;2023-10-19T00:00:15;3.03;;;0.73;;
72493;SDS011;60520;49.182;-0.348;2023-10-19T00:02:48;2.63;;;0.90;;
72493;SDS011;60520;49.182;-0.348;2023-10-19T00:05:16;2.65;;;0.90;;
72493;SDS011;60520;49.182;-0.348;2023-10-19T00:07:45;1.45;;;0.60;;
72493;SDS011;60520;49.182;-0.348;2023-10-19T00:10:11;2.58;;;0.80;;
72493;SDS011;60520;49.182;-0.348;2023-10-19T00:12:41;1.85;;;0.70;;
72493;SDS011;60520;49.182;-0.348;2023-10-19T00:15:09;1.83;;;0.70;;
72493;SDS011;60520;49.182;-0.348;2023-10-19T00:17:37;1.73;;;0.70;;
72493;SDS011;60520;49.182;-0.348;2023-10-19T00:20:06;2.13;;;0.80;;
72493;SDS011;60520;49.182;-0.348;2023-10-19T00:22:47;2.03;;;0.77;;
72493;SDS011;60520;49.182;-0.348;2023-10-19T00:25:14;2.20;;;0.80;;
72493;SDS011;60520;49.182;-0.348;2023-10-19T00:27:41;2.55;;;0.90;;
72493;SDS011;60520;49.182;-0.348;2023-10-19T00:30:08;2.30;;;0.88;;
72493;SDS011;60520;49.182;-0.348;2023-10-19T00:32:35;1.63;;;0.70;;
72493;SDS011;60520;49.182;-0.348;2023-10-19T00:35:06;2.15;;;0.85;;
72493;SDS011;60520;49.182;-0.348;2023-10-19T00:37:52;2.47;;;0.95;;
72493;SDS011;60520;49.182;-0.348;2023-10-19T00:40:21;1.83;;;0.70;;
72493;SDS011;60520;49.182;-0.348;2023-10-19T00:43:02;2.50;;;0.90;;
72493;SDS011;60520;49.182;-0.348;2023-10-19T00:45:32;2.40;;;0.80;;
72493;SDS011;60520;49.182;-0.348;2023-10-19T00:48:05;2.03;;;0.70;;
72493;SDS011;60520;49.182;-0.348;2023-10-19T00:50:37;1.67;;;0.80;;
72493;SDS011;60520;49.182;-0.348;2023-10-19T00:53:05;2.50;;;0.95;;
72493;SDS011;60520;49.182;-0.348;2023-10-19T00:55:33;2.22;;;0.82;;
72493;SDS011;60520;49.182;-0.348;2023-10-19T00:58:02;1.70;;;0.80;;
72493;SDS011;60520;49.182;-0.348;2023-10-19T01:00:35;4.40;;;0.90;;
72493;SDS011;60520;49.182;-0.348;2023-10-19T01:03:08;2.80;;;0.88;;
72493;SDS011;60520;49.182;-0.348;2023-10-19T01:05:43;2.45;;;0.70;;
72493;SDS011;60520;49.182;-0.348;2023-10-19T01:08:13;2.00;;;0.90;;
72493;SDS011;60520;49.182;-0.348;2023-10-19T01:10:49;2.13;;;0.90;;
72493;SDS011;60520;49.182;-0.348;2023-10-19T01:13:17;2.80;;;0.90;;
72493;SDS011;60520;49.182;-0.348;2023-10-19T01:15:51;2.20;;;0.85;;
72493;SDS011;60520;49.182;-0.348;2023-10-19T01:18:19;2.00;;;0.73;;
72493;SDS011;60520;49.182;-0.348;2023-10-19T01:20:48;1.35;;;0.65;;
72493;SDS011;60520;49.182;-0.348;2023-10-19T01:23:18;1.38;;;0.52;;
72493;SDS011;60520;49.182;-0.348;2023-10-19T01:25:53;2.20;;;0.90;;
72493;SDS011;60520;49.182;-0.348;2023-10-19T01:28:31;1.58;;;0.77;;
72493;SDS011;60520;49.182;-0.348;2023-10-19T01:31:09;2.50;;;0.80;;
72493;SDS011;60520;49.182;-0.348;2023-10-19T01:33:40;2.58;;;0.77;;
72493;SDS011;60520;49.182;-0.348;2023-10-19T01:36:08;2.25;;;0.85;;
72493;SDS011;60520;49.182;-0.348;2023-10-19T01:38:51;2.67;;;0.75;;
72493;SDS011;60520;49.182;-0.348;2023-10-19T01:41:19;2.38;;;0.80;;
72493;SDS011;60520;49.182;-0.348;2023-10-19T01:43:47;2.33;;;0.98;;
72493;SDS011;60520;49.182;-0.348;2023-10-19T01:46:14;1.52;;;0.80;;
72493;SDS011;60520;49.182;-0.348;2023-10-19T01:48:47;1.88;;;0.70;;
72493;SDS011;60520;49.182;-0.348;2023-10-19T01:51:14;2.03;;;0.88;;
72493;SDS011;60520;49.182;-0.348;2023-10-19T01:53:42;3.70;;;0.93;;
72493;SDS011;60520;49.182;-0.348;2023-10-19T01:56:11;1.80;;;0.80;;
72493;SDS011;60520;49.182;-0.348;2023-10-19T01:58:39;1.80;;;0.70;;
72493;SDS011;60520;49.182;-0.348;2023-10-19T02:01:06;2.47;;;0.93;;
72493;SDS011;60520;49.182;-0.348;2023-10-19T02:03:40;2.80;;;0.98;;
72493;SDS011;60520;49.182;-0.348;2023-10-19T02:06:07;3.33;;;0.98;;
72493;SDS011;60520;49.182;-0.348;2023-10-19T02:08:42;2.45;;;0.93;;
72493;SDS011;60520;49.182;-0.348;2023-10-19T02:11:10;2.05;;;0.80;;
72493;SDS011;60520;49.182;-0.348;2023-10-19T02:13:42;3.33;;;0.90;;
72493;SDS011;60520;49.182;-0.348;2023-10-19T02:16:08;2.72;;;1.10;;
72493;SDS011;60520;49.182;-0.348;2023-10-19T02:18:36;3.45;;;1.00;;
72493;SDS011;60520;49.182;-0.348;2023-10-19T02:21:03;2.30;;;1.00;;
72493;SDS011;60520;49.182;-0.348;2023-10-19T02:23:32;3.63;;;1.17;;
72493;SDS011;60520;49.182;-0.348;2023-10-19T02:25:59;3.28;;;0.98;;
72493;SDS011;60520;49.182;-0.348;2023-10-19T02:28:29;2.40;;;0.80;;
72493;SDS011;60520;49.182;-0.348;2023-10-19T02:30:56;2.30;;;0.95;;
72493;SDS011;60520;49.182;-0.348;2023-10-19T02:33:28;3.20;;;1.10;;
72493;SDS011;60520;49.182;-0.348;2023-10-19T02:35:55;2.65;;;0.90;;
72493;SDS011;60520;49.182;-0.348;2023-10-19T02:38:22;2.72;;;1.10;;
72493;SDS011;60520;49.182;-0.348;2023-10-19T02:40:48;3.17;;;0.80;;
72493;SDS011;60520;49.182;-0.348;2023-10-19T02:43:15;3.25;;;1.08;;
72493;SDS011;60520;49.182;-0.348;2023-10-19T02:45:44;2.72;;;1.10;;
72493;SDS011;60520;49.182;-0.348;2023-10-19T02:48:13;3.30;;;1.23;;
72493;SDS011;60520;49.182;-0.348;2023-10-19T02:50:41;2.72;;;1.00;;
72493;SDS011;60520;49.182;-0.348;2023-10-19T02:53:08;1.98;;;0.95;;
72493;SDS011;60520;49.182;-0.348;2023-10-19T02:55:38;1.85;;;0.95;;
72493;SDS011;60520;49.182;-0.348;2023-10-19T02:58:05;2.53;;;0.77;;
72493;SDS011;60520;49.182;-0.348;2023-10-19T03:00:31;2.15;;;1.00;;
72493;SDS011;60520;49.182;-0.348;2023-10-19T03:03:00;4.35;;;1.20;;
72493;SDS011;60520;49.182;-0.348;2023-10-19T03:05:30;4.68;;;1.50;;
72493;SDS011;60520;49.182;-0.348;2023-10-19T03:07:59;2.65;;;1.02;;
72493;SDS011;60520;49.182;-0.348;2023-10-19T03:10:25;1.80;;;0.93;;
72493;SDS011;60520;49.182;-0.348;2023-10-19T03:13:07;3.25;;;0.98;;
72493;SDS011;60520;49.182;-0.348;2023-10-19T03:15:34;4.03;;;1.05;;
72493;SDS011;60520;49.182;-0.348;2023-10-19T03:18:02;3.83;;;1.08;;
72493;SDS011;60520;49.182;-0.348;2023-10-19T03:20:29;4.13;;;1.10;;
72493;SDS011;60520;49.182;-0.348;2023-10-19T03:22:58;3.47;;;1.10;;
72493;SDS011;60520;49.182;-0.348;2023-10-19T03:25:27;3.63;;;1.10;;
72493;SDS011;60520;49.182;-0.348;2023-10-19T03:28:11;3.72;;;1.10;;
72493;SDS011;60520;49.182;-0.348;2023-10-19T03:30:41;2.92;;;1.00;;
72493;SDS011;60520;49.182;-0.348;2023-10-19T03:33:09;3.78;;;1.10;;
72493;SDS011;60520;49.182;-0.348;2023-10-19T03:35:37;3.63;;;1.08;;
72493;SDS011;60520;49.182;-0.348;2023-10-19T03:38:06;2.65;;;1.00;;
72493;SDS011;60520;49.182;-0.348;2023-10-19T03:40:39;2.83;;;0.88;;
72493;SDS011;60520;49.182;-0.348;2023-10-19T03:43:11;2.35;;;0.95;;
72493;SDS011;60520;49.182;-0.348;2023-10-19T03:45:43;4.68;;;1.20;;
72493;SDS011;60520;49.182;-0.348;2023-10-19T03:48:18;2.72;;;1.00;;
72493;SDS011;60520;49.182;-0.348;2023-10-19T03:50:51;2.38;;;0.80;;
72493;SDS011;60520;49.182;-0.348;2023-10-19T03:53:20;2.97;;;1.10;;
72493;SDS011;60520;49.182;-0.348;2023-10-19T03:55:47;2.38;;;0.90;;
72493;SDS011;60520;49.182;-0.348;2023-10-19T03:58:17;4.03;;;1.15;;
72493;SDS011;60520;49.182;-0.348;2023-10-19T04:00:46;2.47;;;1.00;;
72493;SDS011;60520;49.182;-0.348;2023-10-19T04:03:15;2.30;;;1.02;;
72493;SDS011;60520;49.182;-0.348;2023-10-19T04:05:44;2.42;;;0.93;;
72493;SDS011;60520;49.182;-0.348;2023-10-19T04:08:14;2.92;;;1.10;;
72493;SDS011;60520;49.182;-0.348;2023-10-19T04:10:45;4.10;;;1.02;;
72493;SDS011;60520;49.182;-0.348;2023-10-19T04:13:33;2.90;;;1.00;;
72493;SDS011;60520;49.182;-0.348;2023-10-19T04:16:01;2.88;;;0.90;;
72493;SDS011;60520;49.182;-0.348;2023-10-19T04:18:28;4.03;;;1.27;;
72493;SDS011;60520;49.182;-0.348;2023-10-19T04:20:57;2.13;;;0.88;;
72493;SDS011;60520;49.182;-0.348;2023-10-19T04:23:24;2.72;;;1.00;;
72493;SDS011;60520;49.182;-0.348;2023-10-19T04:25:53;2.53;;;0.75;;
72493;SDS011;60520;49.182;-0.348;2023-10-19T04:28:23;2.83;;;0.95;;
72493;SDS011;60520;49.182;-0.348;2023-10-19T04:30:57;2.35;;;1.00;;
72493;SDS011;60520;49.182;-0.348;2023-10-19T04:33:27;3.75;;;1.20;;
72493;SDS011;60520;49.182;-0.348;2023-10-19T04:35:55;1.88;;;0.82;;
72493;SDS011;60520;49.182;-0.348;2023-10-19T04:38:26;1.73;;;0.80;;
72493;SDS011;60520;49.182;-0.348;2023-10-19T04:41:02;2.97;;;1.10;;
72493;SDS011;60520;49.182;-0.348;2023-10-19T04:43:32;4.45;;;1.10;;
72493;SDS011;60520;49.182;-0.348;2023-10-19T04:46:00;2.92;;;0.93;;
72493;SDS011;60520;49.182;-0.348;2023-10-19T04:48:32;3.28;;;0.98;;
72493;SDS011;60520;49.182;-0.348;2023-10-19T04:51:00;3.90;;;1.17;;
72493;SDS011;60520;49.182;-0.348;2023-10-19T04:53:30;3.17;;;1.00;;
72493;SDS011;60520;49.182;-0.348;2023-10-19T04:55:57;5.05;;;1.13;;
72493;SDS011;60520;49.182;-0.348;2023-10-19T04:58:25;5.47;;;1.10;;
72493;SDS011;60520;49.182;-0.348;2023-10-19T05:00:53;5.30;;;1.10;;
72493;SDS011;60520;49.182;-0.348;2023-10-19T05:03:20;4.68;;;1.10;;
72493;SDS011;60520;49.182;-0.348;2023-10-19T05:05:47;3.33;;;1.20;;
72493;SDS011;60520;49.182;-0.348;2023-10-19T05:08:14;2.80;;;0.90;;
72493;SDS011;60520;49.182;-0.348;2023-10-19T05:10:43;2.65;;;1.00;;
72493;SDS011;60520;49.182;-0.348;2023-10-19T05:13:10;3.50;;;1.13;;
72493;SDS011;60520;49.182;-0.348;2023-10-19T05:15:37;1.95;;;0.80;;
72493;SDS011;60520;49.182;-0.348;2023-10-19T05:18:04;2.85;;;0.90;;
72493;SDS011;60520;49.182;-0.348;2023-10-19T05:20:31;2.25;;;0.70;;
72493;SDS011;60520;49.182;-0.348;2023-10-19T05:22:58;1.63;;;0.73;;
72493;SDS011;60520;49.182;-0.348;2023-10-19T05:25:26;1.60;;;0.73;;
72493;SDS011;60520;49.182;-0.348;2023-10-19T05:27:55;2.35;;;0.85;;
72493;SDS011;60520;49.182;-0.348;2023-10-19T05:30:23;2.10;;;0.85;;
72493;SDS011;60520;49.182;-0.348;2023-10-19T05:32:50;1.33;;;0.68;;
72493;SDS011;60520;49.182;-0.348;2023-10-19T05:35:18;1.55;;;0.60;;
72493;SDS011;60520;49.182;-0.348;2023-10-19T05:37:49;2.53;;;0.90;;
72493;SDS011;60520;49.182;-0.348;2023-10-19T05:40:16;1.67;;;0.70;;
72493;SDS011;60520;49.182;-0.348;2023-10-19T05:42:44;1.23;;;0.60;;
72493;SDS011;60520;49.182;-0.348;2023-10-19T05:45:13;0.65;;;0.40;;
72493;SDS011;60520;49.182;-0.348;2023-10-19T05:47:41;1.48;;;0.50;;
72493;SDS011;60520;49.182;-0.348;2023-10-19T05:50:09;1.85;;;0.73;;
72493;SDS011;60520;49.182;-0.348;2023-10-19T05:52:39;1.92;;;0.52;;
72493;SDS011;60520;49.182;-0.348;2023-10-19T05:55:07;0.82;;;0.60;;
72493;SDS011;60520;49.182;-0.348;2023-10-19T05:57:35;0.70;;;0.40;;
72493;SDS011;60520;49.182;-0.348;2023-10-19T06:00:06;1.15;;;0.43;;
72493;SDS011;60520;49.182;-0.348;2023-10-19T06:02:34;1.00;;;0.40;;
72493;SDS011;60520;49.182;-0.348;2023-10-19T06:05:01;0.40;;;0.40;;
72493;SDS011;60520;49.182;-0.348;2023-10-19T06:07:30;0.77;;;0.52;;
72493;SDS011;60520;49.182;-0.348;2023-10-19T06:09:58;1.42;;;0.50;;
72493;SDS011;60520;49.182;-0.348;2023-10-19T06:12:29;0.40;;;0.30;;
72493;SDS011;60520;49.182;-0.348;2023-10-19T06:14:56;1.00;;;0.50;;
72493;SDS011;60520;49.182;-0.348;2023-10-19T06:17:23;1.35;;;0.50;;
72493;SDS011;60520;49.182;-0.348;2023-10-19T06:19:52;0.80;;;0.57;;
72493;SDS011;60520;49.182;-0.348;2023-10-19T06:22:19;1.38;;;0.50;;
72493;SDS011;60520;49.182;-0.348;2023-10-19T06:24:46;0.70;;;0.43;;
72493;SDS011;60520;49.182;-0.348;2023-10-19T06:27:13;0.82;;;0.38;;
72493;SDS011;60520;49.182;-0.348;2023-10-19T06:29:40;0.60;;;0.38;;
72493;SDS011;60520;49.182;-0.348;2023-10-19T06:32:09;0.98;;;0.50;;
72493;SDS011;60520;49.182;-0.348;2023-10-19T06:34:38;0.57;;;0.40;;
72493;SDS011;60520;49.182;-0.348;2023-10-19T06:37:06;0.70;;;0.40;;
72493;SDS011;60520;49.182;-0.348;2023-10-19T06:39:36;0.55;;;0.30;;
72493;SDS011;60520;49.182;-0.348;2023-10-19T06:42:06;0.30;;;0.30;;
72493;SDS011;60520;49.182;-0.348;2023-10-19T06:44:38;0.40;;;0.35;;
72493;SDS011;60520;49.182;-0.348;2023-10-19T06:47:05;0.38;;;0.30;;
72493;SDS011;60520;49.182;-0.348;2023-10-19T06:49:32;0.30;;;0.30;;
72493;SDS011;60520;49.182;-0.348;2023-10-19T06:52:00;0.77;;;0.45;;
72493;SDS011;60520;49.182;-0.348;2023-10-19T06:54:31;0.32;;;0.30;;
72493;SDS011;60520;49.182;-0.348;2023-10-19T06:56:58;0.40;;;0.30;;
72493;SDS011;60520;49.182;-0.348;2023-10-19T06:59:27;0.60;;;0.30;;
72493;SDS011;60520;49.182;-0.348;2023-10-19T07:01:58;0.47;;;0.20;;
72493;SDS011;60520;49.182;-0.348;2023-10-19T07:04:26;0.60;;;0.40;;
72493;SDS011;60520;49.182;-0.348;2023-10-19T07:06:54;0.95;;;0.40;;
72493;SDS011;60520;49.182;-0.348;2023-10-19T07:09:21;0.90;;;0.40;;
72493;SDS011;60520;49.182;-0.348;2023-10-19T07:11:50;0.82;;;0.40;;
72493;SDS011;60520;49.182;-0.348;2023-10-19T07:14:20;0.77;;;0.30;;
72493;SDS011;60520;49.182;-0.348;2023-10-19T07:16:48;1.13;;;0.45;;
72493;SDS011;60520;49.182;-0.348;2023-10-19T07:19:16;0.50;;;0.30;;
72493;SDS011;60520;49.182;-0.348;2023-10-19T07:21:44;0.82;;;0.47;;
72493;SDS011;60520;49.182;-0.348;2023-10-19T07:24:13;1.00;;;0.50;;
72493;SDS011;60520;49.182;-0.348;2023-10-19T07:26:43;0.73;;;0.35;;
72493;SDS011;60520;49.182;-0.348;2023-10-19T07:29:19;0.82;;;0.40;;
72493;SDS011;60520;49.182;-0.348;2023-10-19T07:31:47;1.20;;;0.50;;
72493;SDS011;60520;49.182;-0.348;2023-10-19T07:34:14;0.68;;;0.40;;
72493;SDS011;60520;49.182;-0.348;2023-10-19T07:36:41;2.03;;;0.50;;
72493;SDS011;60520;49.182;-0.348;2023-10-19T07:39:08;1.55;;;0.40;;
72493;SDS011;60520;49.182;-0.348;2023-10-19T07:41:44;2.35;;;0.43;;
72493;SDS011;60520;49.182;-0.348;2023-10-19T07:44:11;0.70;;;0.40;;
72493;SDS011;60520;49.182;-0.348;2023-10-19T07:46:39;1.75;;;0.40;;
72493;SDS011;60520;49.182;-0.348;2023-10-19T07:49:07;1.95;;;0.50;;
72493;SDS011;60520;49.182;-0.348;2023-10-19T07:51:39;0.95;;;0.50;;
72493;SDS011;60520;49.182;-0.348;2023-10-19T07:54:06;1.27;;;0.57;;
72493;SDS011;60520;49.182;-0.348;2023-10-19T07:56:34;3.88;;;0.60;;
72493;SDS011;60520;49.182;-0.348;2023-10-19T07:59:01;1.30;;;0.50;;
72493;SDS011;60520;49.182;-0.348;2023-10-19T08:01:28;1.30;;;0.40;;
72493;SDS011;60520;49.182;-0.348;2023-10-19T08:03:58;0.60;;;0.30;;
72493;SDS011;60520;49.182;-0.348;2023-10-19T08:06:25;0.63;;;0.43;;
72493;SDS011;60520;49.182;-0.348;2023-10-19T08:08:52;3.13;;;0.65;;
72493;SDS011;60520;49.182;-0.348;2023-10-19T08:11:20;0.93;;;0.32;;
72493;SDS011;60520;49.182;-0.348;2023-10-19T08:13:48;0.70;;;0.40;;
72493;SDS011;60520;49.182;-0.348;2023-10-19T08:16:15;1.75;;;0.52;;
72493;SDS011;60520;49.182;-0.348;2023-10-19T08:18:42;0.85;;;0.43;;
72493;SDS011;60520;49.182;-0.348;2023-10-19T08:21:16;1.55;;;0.50;;
72493;SDS011;60520;49.182;-0.348;2023-10-19T08:23:43;1.30;;;0.40;;
72493;SDS011;60520;49.182;-0.348;2023-10-19T08:26:12;2.13;;;0.60;;
72493;SDS011;60520;49.182;-0.348;2023-10-19T08:28:42;1.33;;;0.57;;
72493;SDS011;60520;49.182;-0.348;2023-10-19T08:31:13;1.13;;;0.50;;
72493;SDS011;60520;49.182;-0.348;2023-10-19T08:33:42;1.10;;;0.55;;
72493;SDS011;60520;49.182;-0.348;2023-10-19T08:36:18;3.03;;;0.60;;
72493;SDS011;60520;49.182;-0.348;2023-10-19T08:38:48;1.65;;;0.60;;
72493;SDS011;60520;49.182;-0.348;2023-10-19T08:41:19;4.75;;;0.73;;
72493;SDS011;60520;49.182;-0.348;2023-10-19T08:43:48;1.50;;;0.50;;
72493;SDS011;60520;49.182;-0.348;2023-10-19T08:46:16;2.63;;;0.57;;
72493;SDS011;60520;49.182;-0.348;2023-10-19T08:48:43;2.83;;;0.60;;
72493;SDS011;60520;49.182;-0.348;2023-10-19T08:51:13;1.60;;;0.50;;
72493;SDS011;60520;49.182;-0.348;2023-10-19T08:53:45;1.42;;;0.50;;
72493;SDS011;60520;49.182;-0.348;2023-10-19T08:56:13;0.80;;;0.50;;
72493;SDS011;60520;49.182;-0.348;2023-10-19T08:58:41;1.15;;;0.57;;
72493;SDS011;60520;49.182;-0.348;2023-10-19T09:01:08;1.67;;;0.55;;
72493;SDS011;60520;49.182;-0.348;2023-10-19T09:03:38;2.53;;;0.63;;
72493;SDS011;60520;49.182;-0.348;2023-10-19T09:06:08;5.38;;;0.60;;
72493;SDS011;60520;49.182;-0.348;2023-10-19T09:08:40;1.98;;;0.60;;
72493;SDS011;60520;49.182;-0.348;2023-10-19T09:11:13;1.85;;;0.50;;
72493;SDS011;60520;49.182;-0.348;2023-10-19T09:13:43;4.07;;;0.70;;
72493;SDS011;60520;49.182;-0.348;2023-10-19T09:16:11;2.50;;;0.50;;
72493;SDS011;60520;49.182;-0.348;2023-10-19T09:18:39;2.85;;;0.63;;
72493;SDS011;60520;49.182;-0.348;2023-10-19T09:21:06;1.35;;;0.70;;
72493;SDS011;60520;49.182;-0.348;2023-10-19T09:23:36;2.35;;;0.57;;
72493;SDS011;60520;49.182;-0.348;2023-10-19T09:26:04;1.33;;;0.68;;
72493;SDS011;60520;49.182;-0.348;2023-10-19T09:28:35;0.93;;;0.50;;
72493;SDS011;60520;49.182;-0.348;2023-10-19T09:31:02;3.97;;;0.73;;
72493;SDS011;60520;49.182;-0.348;2023-10-19T09:33:30;3.70;;;0.85;;
72493;SDS011;60520;49.182;-0.348;2023-10-19T09:35:59;3.25;;;1.00;;
72493;SDS011;60520;49.182;-0.348;2023-10-19T09:38:27;1.20;;;0.60;;
72493;SDS011;60520;49.182;-0.348;2023-10-19T09:40:54;3.28;;;0.80;;
72493;SDS011;60520;49.182;-0.348;2023-10-19T09:43:30;1.73;;;0.60;;
72493;SDS011;60520;49.182;-0.348;2023-10-19T09:46:04;2.65;;;0.65;;
72493;SDS011;60520;49.182;-0.348;2023-10-19T09:48:33;2.30;;;0.70;;
72493;SDS011;60520;49.182;-0.348;2023-10-19T09:51:01;2.05;;;0.75;;
72493;SDS011;60520;49.182;-0.348;2023-10-19T09:53:29;5.00;;;0.80;;
72493;SDS011;60520;49.182;-0.348;2023-10-19T09:55:58;2.13;;;0.73;;
72493;SDS011;60520;49.182;-0.348;2023-10-19T09:58:26;2.53;;;0.60;;
72493;SDS011;60520;49.182;-0.348;2023-10-19T10:00:55;3.20;;;0.70;;
72493;SDS011;60520;49.182;-0.348;2023-10-19T10:06:09;2.58;;;0.80;;
72493;SDS011;60520;49.182;-0.348;2023-10-19T10:08:39;1.88;;;0.80;;
72493;SDS011;60520;49.182;-0.348;2023-10-19T10:11:14;7.78;;;0.82;;
72493;SDS011;60520;49.182;-0.348;2023-10-19T10:13:42;6.30;;;0.80;;
72493;SDS011;60520;49.182;-0.348;2023-10-19T10:16:10;9.45;;;1.05;;
72493;SDS011;60520;49.182;-0.348;2023-10-19T10:18:39;7.90;;;1.20;;
72493;SDS011;60520;49.182;-0.348;2023-10-19T10:21:07;4.07;;;0.93;;
72493;SDS011;60520;49.182;-0.348;2023-10-19T10:23:41;2.13;;;0.82;;
72493;SDS011;60520;49.182;-0.348;2023-10-19T10:26:09;8.65;;;1.00;;
72493;SDS011;60520;49.182;-0.348;2023-10-19T10:28:37;3.55;;;0.98;;
72493;SDS011;60520;49.182;-0.348;2023-10-19T10:31:12;6.68;;;1.10;;
72493;SDS011;60520;49.182;-0.348;2023-10-19T10:33:40;4.40;;;0.90;;
72493;SDS011;60520;49.182;-0.348;2023-10-19T10:36:10;4.00;;;0.98;;
72493;SDS011;60520;49.182;-0.348;2023-10-19T10:38:37;2.63;;;0.80;;
72493;SDS011;60520;49.182;-0.348;2023-10-19T10:41:06;5.93;;;1.00;;
72493;SDS011;60520;49.182;-0.348;2023-10-19T10:43:49;5.68;;;1.13;;
72493;SDS011;60520;49.182;-0.348;2023-10-19T10:46:17;3.85;;;1.00;;
72493;SDS011;60520;49.182;-0.348;2023-10-19T10:48:45;1.80;;;0.77;;
72493;SDS011;60520;49.182;-0.348;2023-10-19T10:51:17;4.43;;;0.90;;
72493;SDS011;60520;49.182;-0.348;2023-10-19T10:53:46;3.72;;;0.82;;
72493;SDS011;60520;49.182;-0.348;2023-10-19T10:56:14;6.65;;;0.98;;
72493;SDS011;60520;49.182;-0.348;2023-10-19T10:58:41;2.67;;;0.85;;
72493;SDS011;60520;49.182;-0.348;2023-10-19T11:01:08;4.15;;;0.80;;
72493;SDS011;60520;49.182;-0.348;2023-10-19T11:03:36;3.70;;;0.98;;
72493;SDS011;60520;49.182;-0.348;2023-10-19T11:06:04;3.22;;;0.80;;
72493;SDS011;60520;49.182;-0.348;2023-10-19T11:08:33;3.00;;;1.00;;
72493;SDS011;60520;49.182;-0.348;2023-10-19T11:11:04;1.95;;;0.65;;
72493;SDS011;60520;49.182;-0.348;2023-10-19T11:13:33;2.28;;;0.80;;
72493;SDS011;60520;49.182;-0.348;2023-10-19T11:16:02;2.30;;;0.90;;
72493;SDS011;60520;49.182;-0.348;2023-10-19T11:18:32;2.20;;;0.70;;
72493;SDS011;60520;49.182;-0.348;2023-10-19T11:21:00;1.58;;;0.80;;
72493;SDS011;60520;49.182;-0.348;2023-10-19T11:23:36;2.90;;;0.90;;
72493;SDS011;60520;49.182;-0.348;2023-10-19T11:26:03;3.75;;;1.15;;
72493;SDS011;60520;49.182;-0.348;2023-10-19T11:28:31;3.47;;;0.88;;
72493;SDS011;60520;49.182;-0.348;2023-10-19T11:31:16;3.05;;;0.80;;
72493;SDS011;60520;49.182;-0.348;2023-10-19T11:33:44;3.75;;;0.95;;
72493;SDS011;60520;49.182;-0.348;2023-10-19T11:36:13;4.60;;;1.00;;
72493;SDS011;60520;49.182;-0.348;2023-10-19T11:38:40;3.90;;;1.08;;
72493;SDS011;60520;49.182;-0.348;2023-10-19T11:41:08;3.78;;;1.00;;
72493;SDS011;60520;49.182;-0.348;2023-10-19T11:43:35;5.03;;;1.13;;
72493;SDS011;60520;49.182;-0.348;2023-10-19T11:46:02;6.32;;;1.17;;
72493;SDS011;60520;49.182;-0.348;2023-10-19T11:48:32;4.13;;;1.02;;
72493;SDS011;60520;49.182;-0.348;2023-10-19T11:51:00;4.50;;;1.35;;
72493;SDS011;60520;49.182;-0.348;2023-10-19T11:53:29;4.78;;;1.10;;
72493;SDS011;60520;49.182;-0.348;2023-10-19T11:55:58;5.05;;;1.25;;
72493;SDS011;60520;49.182;-0.348;2023-10-19T11:58:25;4.28;;;1.05;;
72493;SDS011;60520;49.182;-0.348;2023-10-19T12:00:53;4.72;;;1.30;;
72493;SDS011;60520;49.182;-0.348;2023-10-19T12:03:21;4.60;;;1.17;;
72493;SDS011;60520;49.182;-0.348;2023-10-19T12:05:49;3.40;;;1.00;;
72493;SDS011;60520;49.182;-0.348;2023-10-19T12:08:18;4.68;;;1.15;;
72493;SDS011;60520;49.182;-0.348;2023-10-19T12:10:45;5.65;;;1.00;;
72493;SDS011;60520;49.182;-0.348;2023-10-19T12:13:12;8.27;;;1.80;;
72493;SDS011;60520;49.182;-0.348;2023-10-19T12:15:41;7.90;;;1.42;;
72493;SDS011;60520;49.182;-0.348;2023-10-19T12:18:16;8.93;;;1.27;;
72493;SDS011;60520;49.182;-0.348;2023-10-19T12:20:43;14.38;;;1.42;;
72493;SDS011;60520;49.182;-0.348;2023-10-19T12:23:12;15.48;;;1.58;;
72493;SDS011;60520;49.182;-0.348;2023-10-19T12:25:39;6.50;;;1.10;;
72493;SDS011;60520;49.182;-0.348;2023-10-19T12:28:08;3.70;;;1.27;;
72493;SDS011;60520;49.182;-0.348;2023-10-19T12:30:39;6.05;;;1.45;;
72493;SDS011;60520;49.182;-0.348;2023-10-19T12:33:06;3.40;;;1.08;;
72493;SDS011;60520;49.182;-0.348;2023-10-19T12:35:36;6.47;;;1.42;;
72493;SDS011;60520;49.182;-0.348;2023-10-19T12:38:18;2.72;;;1.00;;
72493;SDS011;60520;49.182;-0.348;2023-10-19T12:40:46;3.30;;;1.33;;
72493;SDS011;60520;49.182;-0.348;2023-10-19T12:43:13;7.72;;;1.20;;
72493;SDS011;60520;49.182;-0.348;2023-10-19T12:45:43;5.95;;;1.10;;
72493;SDS011;60520;49.182;-0.348;2023-10-19T12:48:15;7.22;;;1.17;;
72493;SDS011;60520;49.182;-0.348;2023-10-19T12:50:43;8.43;;;1.40;;
72493;SDS011;60520;49.182;-0.348;2023-10-19T12:53:10;15.23;;;1.30;;
72493;SDS011;60520;49.182;-0.348;2023-10-19T12:55:40;7.13;;;1.30;;
72493;SDS011;60520;49.182;-0.348;2023-10-19T12:58:08;6.65;;;1.38;;
72493;SDS011;60520;49.182;-0.348;2023-10-19T13:00:37;5.82;;;1.13;;
72493;SDS011;60520;49.182;-0.348;2023-10-19T13:03:09;8.93;;;1.10;;
72493;SDS011;60520;49.182;-0.348;2023-10-19T13:05:38;8.73;;;1.27;;
72493;SDS011;60520;49.182;-0.348;2023-10-19T13:08:06;6.28;;;1.70;;
72493;SDS011;60520;49.182;-0.348;2023-10-19T13:10:33;4.57;;;1.13;;
72493;SDS011;60520;49.182;-0.348;2023-10-19T13:13:04;4.57;;;1.25;;
72493;SDS011;60520;49.182;-0.348;2023-10-19T13:15:31;4.13;;;1.33;;
72493;SDS011;60520;49.182;-0.348;2023-10-19T13:17:59;7.75;;;1.27;;
72493;SDS011;60520;49.182;-0.348;2023-10-19T13:20:28;4.97;;;1.45;;
72493;SDS011;60520;49.182;-0.348;2023-10-19T13:22:59;6.20;;;1.10;;
72493;SDS011;60520;49.182;-0.348;2023-10-19T13:25:26;9.05;;;1.42;;
72493;SDS011;60520;49.182;-0.348;2023-10-19T13:28:08;9.40;;;1.60;;
72493;SDS011;60520;49.182;-0.348;2023-10-19T13:30:36;14.30;;;1.85;;
72493;SDS011;60520;49.182;-0.348;2023-10-19T13:33:04;15.88;;;1.55;;
72493;SDS011;60520;49.182;-0.348;2023-10-19T13:35:31;13.55;;;1.60;;
72493;SDS011;60520;49.182;-0.348;2023-10-19T13:37:59;10.02;;;1.45;;
72493;SDS011;60520;49.182;-0.348;2023-10-19T13:40:26;10.00;;;1.52;;
72493;SDS011;60520;49.182;-0.348;2023-10-19T13:42:55;9.43;;;1.60;;
72493;SDS011;60520;49.182;-0.348;2023-10-19T13:45:24;10.07;;;1.55;;
72493;SDS011;60520;49.182;-0.348;2023-10-19T13:47:52;6.53;;;1.80;;
72493;SDS011;60520;49.182;-0.348;2023-10-19T13:50:21;11.45;;;2.30;;
72493;SDS011;60520;49.182;-0.348;2023-10-19T13:52:49;6.22;;;2.55;;
72493;SDS011;60520;49.182;-0.348;2023-10-19T13:55:17;14.77;;;5.50;;
72493;SDS011;60520;49.182;-0.348;2023-10-19T13:57:45;15.25;;;3.55;;
72493;SDS011;60520;49.182;-0.348;2023-10-19T14:00:14;10.95;;;3.45;;
72493;SDS011;60520;49.182;-0.348;2023-10-19T14:02:49;5.90;;;2.50;;
72493;SDS011;60520;49.182;-0.348;2023-10-19T14:05:17;12.25;;;2.80;;
72493;SDS011;60520;49.182;-0.348;2023-10-19T14:07:45;12.52;;;2.50;;
72493;SDS011;60520;49.182;-0.348;2023-10-19T14:10:12;8.60;;;2.30;;
72493;SDS011;60520;49.182;-0.348;2023-10-19T14:12:39;9.48;;;2.13;;
72493;SDS011;60520;49.182;-0.348;2023-10-19T14:15:08;10.32;;;2.53;;
72493;SDS011;60520;49.182;-0.348;2023-10-19T14:17:35;26.25;;;5.22;;
72493;SDS011;60520;49.182;-0.348;2023-10-19T14:20:04;42.70;;;5.22;;
72493;SDS011;60520;49.182;-0.348;2023-10-19T14:24:18;27.85;;;5.53;;
72493;SDS011;60520;49.182;-0.348;2023-10-19T14:26:45;27.33;;;3.75;;
72493;SDS011;60520;49.182;-0.348;2023-10-19T14:29:12;20.08;;;3.92;;
72493;SDS011;60520;49.182;-0.348;2023-10-19T14:31:40;17.17;;;3.00;;
72493;SDS011;60520;49.182;-0.348;2023-10-19T14:34:07;16.75;;;2.90;;
72493;SDS011;60520;49.182;-0.348;2023-10-19T14:36:34;13.43;;;2.38;;
72493;SDS011;60520;49.182;-0.348;2023-10-19T14:39:04;12.70;;;1.70;;
72493;SDS011;60520;49.182;-0.348;2023-10-19T14:41:35;7.70;;;1.75;;
72493;SDS011;60520;49.182;-0.348;2023-10-19T14:44:02;6.40;;;1.75;;
72493;SDS011;60520;49.182;-0.348;2023-10-19T14:46:31;5.95;;;1.67;;
72493;SDS011;60520;49.182;-0.348;2023-10-19T14:48:58;5.32;;;1.63;;